createdAt,value
2023-03-03T00:01:21.486Z,9.30
2023-03-03T00:03:24.525Z,9.30
2023-03-03T00:05:26.252Z,9.30
2023-03-03T00:07:27.993Z,9.30
2023-03-03T00:09:29.649Z,9.30
2023-03-03T00:11:31.297Z,9.20
2023-03-03T00:13:33.648Z,9.20
2023-03-03T00:15:36.017Z,9.20
2023-03-03T00:17:37.854Z,9.20
2023-03-03T00:19:41.159Z,9.20
2023-03-03T00:21:44.976Z,9.20
2023-03-03T00:23:46.813Z,9.20
2023-03-03T00:25:50.298Z,9.20
2023-03-03T00:27:51.920Z,9.20
2023-03-03T00:29:55.513Z,9.10
2023-03-03T00:32:20.196Z,9.10
2023-03-03T00:34:26.105Z,9.10
2023-03-03T00:36:37.556Z,9.10
2023-03-03T00:38:39.252Z,9.10
2023-03-03T00:40:41.289Z,9.00
2023-03-03T00:42:46.902Z,9.00
2023-03-03T00:44:49.133Z,9.00
2023-03-03T00:46:50.775Z,9.00
2023-03-03T00:48:52.796Z,9.00
2023-03-03T00:50:55.640Z,9.00
2023-03-03T00:53:04.816Z,8.90
2023-03-03T00:55:07.731Z,8.90
2023-03-03T00:57:09.583Z,8.90
2023-03-03T00:59:11.992Z,8.90
2023-03-03T01:01:14.332Z,8.80
2023-03-03T01:03:22.242Z,8.80
2023-03-03T01:05:23.931Z,8.80
2023-03-03T01:07:25.745Z,8.80
2023-03-03T01:09:27.404Z,8.80
2023-03-03T01:11:29.249Z,8.80
2023-03-03T01:13:32.630Z,8.80
2023-03-03T01:15:34.624Z,8.70
2023-03-03T01:17:36.922Z,8.80
2023-03-03T01:19:38.565Z,8.70
2023-03-03T01:21:40.234Z,8.70
2023-03-03T01:23:41.894Z,8.70
2023-03-03T01:25:43.896Z,8.70
2023-03-03T01:27:45.567Z,8.70
2023-03-03T01:29:47.251Z,8.70
2023-03-03T01:31:48.879Z,8.70
2023-03-03T01:33:50.662Z,8.60
2023-03-03T01:35:52.362Z,8.60
2023-03-03T01:37:54.046Z,8.60
2023-03-03T01:39:55.949Z,8.60
2023-03-03T01:41:57.745Z,8.60
2023-03-03T01:43:59.999Z,8.60
2023-03-03T01:46:02.062Z,8.60
2023-03-03T01:48:10.500Z,8.50
2023-03-03T01:50:14.370Z,8.50
2023-03-03T01:52:27.805Z,8.50
2023-03-03T01:54:33.835Z,8.50
2023-03-03T01:56:35.544Z,8.50
2023-03-03T01:58:41.626Z,8.50
2023-03-03T02:00:46.412Z,8.50
2023-03-03T02:02:48.709Z,8.40
2023-03-03T02:04:50.470Z,8.50
2023-03-03T02:07:00.554Z,8.50
2023-03-03T02:09:06.861Z,8.40
2023-03-03T02:11:08.859Z,8.40
2023-03-03T02:13:10.514Z,8.40
2023-03-03T02:15:29.251Z,8.40
2023-03-03T02:17:31.106Z,8.40
2023-03-03T02:19:54.596Z,8.30
2023-03-03T02:21:56.281Z,8.30
2023-03-03T02:24:17.157Z,8.30
2023-03-03T02:26:22.686Z,8.30
2023-03-03T02:28:29.028Z,8.30
2023-03-03T02:30:30.745Z,8.20
2023-03-03T02:32:32.442Z,8.20
2023-03-03T02:34:50.147Z,8.20
2023-03-03T02:36:51.789Z,8.20
2023-03-03T02:39:01.728Z,8.20
2023-03-03T02:41:07.324Z,8.20
2023-03-03T02:43:10.135Z,8.20
2023-03-03T02:45:12.205Z,8.20
2023-03-03T02:47:13.958Z,8.10
2023-03-03T02:49:17.006Z,8.10
2023-03-03T02:51:18.690Z,8.10
2023-03-03T02:53:20.348Z,8.10
2023-03-03T02:55:22.056Z,8.10
2023-03-03T02:57:24.429Z,8.10
2023-03-03T02:59:26.381Z,8.10
2023-03-03T03:01:29.536Z,8.10
2023-03-03T03:03:31.537Z,8.00
2023-03-03T03:05:33.404Z,8.00
2023-03-03T03:07:36.015Z,8.00
2023-03-03T03:09:37.947Z,8.00
2023-03-03T03:11:40.084Z,8.00
2023-03-03T03:13:41.760Z,8.00
2023-03-03T03:15:45.657Z,7.90
2023-03-03T03:17:47.332Z,8.00
2023-03-03T03:19:49.019Z,8.00
2023-03-03T03:21:50.946Z,7.90
2023-03-03T03:23:53.575Z,7.90
2023-03-03T03:25:55.684Z,7.90
2023-03-03T03:28:01.741Z,7.90
2023-03-03T03:30:03.617Z,7.90
2023-03-03T03:32:06.448Z,7.90
2023-03-03T03:34:08.088Z,7.90
2023-03-03T03:36:10.167Z,7.90
2023-03-03T03:38:12.300Z,7.90
2023-03-03T03:40:14.064Z,7.90
2023-03-03T03:42:16.118Z,7.80
2023-03-03T03:44:17.815Z,7.80
2023-03-03T03:46:19.599Z,7.80
2023-03-03T03:48:21.782Z,7.80
2023-03-03T03:50:24.457Z,7.80
2023-03-03T03:52:26.213Z,7.80
2023-03-03T03:54:28.162Z,7.80
2023-03-03T03:56:29.897Z,7.80
2023-03-03T03:58:33.859Z,7.80
2023-03-03T04:00:40.274Z,7.80
2023-03-03T04:02:42.004Z,7.80
2023-03-03T04:04:47.377Z,7.80
2023-03-03T04:06:49.655Z,7.80
2023-03-03T04:08:51.326Z,7.70
2023-03-03T04:10:55.660Z,7.80
2023-03-03T04:12:58.539Z,7.70
2023-03-03T04:15:02.419Z,7.70
2023-03-03T04:17:04.741Z,7.70
2023-03-03T04:19:06.639Z,7.70
2023-03-03T04:21:12.373Z,7.70
2023-03-03T04:23:14.741Z,7.70
2023-03-03T04:25:17.200Z,7.70
2023-03-03T04:27:19.811Z,7.70
2023-03-03T04:29:21.571Z,7.70
2023-03-03T04:31:23.658Z,7.70
2023-03-03T04:33:25.492Z,7.70
2023-03-03T04:35:27.362Z,7.70
2023-03-03T04:37:29.040Z,7.60
2023-03-03T04:39:31.283Z,7.60
2023-03-03T04:41:33.383Z,7.60
2023-03-03T04:43:35.089Z,7.60
2023-03-03T04:45:37.286Z,7.60
2023-03-03T04:47:39.248Z,7.60
2023-03-03T04:49:41.250Z,7.60
2023-03-03T04:51:43.990Z,7.60
2023-03-03T04:53:47.411Z,7.60
2023-03-03T04:55:52.756Z,7.60
2023-03-03T04:57:55.447Z,7.60
2023-03-03T04:59:57.595Z,7.60
2023-03-03T05:01:59.296Z,7.60
2023-03-03T05:04:00.948Z,7.60
2023-03-03T05:06:02.632Z,7.60
2023-03-03T05:08:04.358Z,7.60
2023-03-03T05:10:06.880Z,7.60
2023-03-03T05:12:08.536Z,7.60
2023-03-03T05:14:10.169Z,7.60
2023-03-03T05:16:11.861Z,7.60
2023-03-03T05:18:13.567Z,7.60
2023-03-03T05:20:15.272Z,7.60
2023-03-03T05:22:16.882Z,7.60
2023-03-03T05:24:18.630Z,7.60
2023-03-03T05:26:20.266Z,7.60
2023-03-03T05:28:22.093Z,7.60
2023-03-03T05:30:23.734Z,7.60
2023-03-03T05:32:25.441Z,7.60
2023-03-03T05:34:27.059Z,7.60
2023-03-03T05:36:28.721Z,7.60
2023-03-03T05:38:30.324Z,7.60
2023-03-03T05:40:32.028Z,7.60
2023-03-03T05:42:33.761Z,7.60
2023-03-03T05:44:35.447Z,7.60
2023-03-03T05:46:37.278Z,7.60
2023-03-03T05:48:38.999Z,7.60
2023-03-03T05:50:40.693Z,7.60
2023-03-03T05:52:42.381Z,7.60
2023-03-03T05:54:44.111Z,7.60
2023-03-03T05:56:45.847Z,7.50
2023-03-03T05:58:47.458Z,7.60
2023-03-03T06:00:49.109Z,7.60
2023-03-03T06:02:50.809Z,7.50
2023-03-03T06:04:52.489Z,7.60
2023-03-03T06:06:54.234Z,7.50
2023-03-03T06:08:57.271Z,7.50
2023-03-03T06:10:59.074Z,7.50
2023-03-03T06:13:00.904Z,7.50
2023-03-03T06:15:02.989Z,7.50
2023-03-03T06:17:05.973Z,7.50
2023-03-03T06:19:07.625Z,7.50
2023-03-03T06:21:09.364Z,7.50
2023-03-03T06:23:11.041Z,7.50
2023-03-03T06:25:12.655Z,7.50
2023-03-03T06:27:14.325Z,7.50
2023-03-03T06:29:16.008Z,7.50
2023-03-03T06:31:17.803Z,7.50
2023-03-03T06:33:19.424Z,7.50
2023-03-03T06:35:21.075Z,7.50
2023-03-03T06:37:22.750Z,7.50
2023-03-03T06:39:24.390Z,7.50
2023-03-03T06:41:26.032Z,7.50
2023-03-03T06:43:27.636Z,7.50
2023-03-03T06:45:29.338Z,7.50
2023-03-03T06:47:31.590Z,7.50
2023-03-03T06:49:33.241Z,7.50
2023-03-03T06:51:36.154Z,7.50
2023-03-03T06:53:37.907Z,7.50
2023-03-03T06:55:39.810Z,7.50
2023-03-03T06:57:41.510Z,7.50
2023-03-03T06:59:43.209Z,7.50
2023-03-03T07:01:45.623Z,7.50
2023-03-03T07:03:47.460Z,7.50
2023-03-03T07:05:49.391Z,7.50
2023-03-03T07:07:51.071Z,7.50
2023-03-03T07:09:56.698Z,7.50
2023-03-03T07:12:02.325Z,7.60
2023-03-03T07:14:10.115Z,7.50
2023-03-03T07:16:15.072Z,7.50
2023-03-03T07:18:40.761Z,7.60
2023-03-03T07:20:42.423Z,7.60
2023-03-03T07:22:44.045Z,7.60
2023-03-03T07:24:47.415Z,7.60
2023-03-03T07:26:49.048Z,7.60
2023-03-03T07:28:55.174Z,7.60
2023-03-03T07:30:57.619Z,7.60
2023-03-03T07:32:59.487Z,7.70
2023-03-03T07:35:02.685Z,7.70
2023-03-03T07:37:10.459Z,7.70
2023-03-03T07:39:20.960Z,7.70
2023-03-03T07:41:26.183Z,7.70
2023-03-03T07:43:38.224Z,7.80
2023-03-03T07:45:40.686Z,7.80
2023-03-03T07:47:42.409Z,7.80
2023-03-03T07:49:44.079Z,7.80
2023-03-03T07:51:45.722Z,7.80
2023-03-03T07:53:47.492Z,7.80
2023-03-03T07:55:49.802Z,7.80
2023-03-03T07:57:52.471Z,7.80
2023-03-03T08:00:02.328Z,7.80
2023-03-03T08:02:37.444Z,7.80
2023-03-03T08:04:41.279Z,7.80
2023-03-03T08:06:52.995Z,7.80
2023-03-03T08:08:55.209Z,7.90
2023-03-03T08:10:57.863Z,7.90
2023-03-03T08:13:01.727Z,7.90
2023-03-03T08:15:15.434Z,7.90
2023-03-03T08:17:24.294Z,7.90
2023-03-03T08:19:26.240Z,7.90
2023-03-03T08:21:28.028Z,8.00
2023-03-03T08:23:29.681Z,8.00
2023-03-03T08:25:31.394Z,8.00
2023-03-03T08:27:33.119Z,8.10
2023-03-03T08:29:34.818Z,8.10
2023-03-03T08:31:41.724Z,8.10
2023-03-03T08:33:44.530Z,8.20
2023-03-03T08:35:46.599Z,8.20
2023-03-03T08:37:48.421Z,8.30
2023-03-03T08:39:50.072Z,8.30
2023-03-03T08:41:51.724Z,8.30
2023-03-03T08:43:53.484Z,8.40
2023-03-03T08:45:58.264Z,8.40
2023-03-03T08:47:59.961Z,8.50
2023-03-03T08:50:01.651Z,8.60
2023-03-03T08:52:03.775Z,8.60
2023-03-03T08:54:05.556Z,8.70
2023-03-03T08:56:07.364Z,8.80
2023-03-03T08:58:09.019Z,8.80
2023-03-03T09:00:13.685Z,8.90
2023-03-03T09:02:17.076Z,8.90
2023-03-03T09:04:18.789Z,8.90
2023-03-03T09:06:20.612Z,9.00
2023-03-03T09:08:22.359Z,9.00
2023-03-03T09:10:27.594Z,9.10
2023-03-03T09:12:49.649Z,9.10
2023-03-03T09:14:51.369Z,9.20
2023-03-03T09:16:54.294Z,9.20
2023-03-03T09:18:56.559Z,9.20
2023-03-03T09:20:58.312Z,9.30
2023-03-03T09:23:16.869Z,9.30
2023-03-03T09:25:33.202Z,9.30
2023-03-03T09:27:35.397Z,9.40
2023-03-03T09:29:37.402Z,9.40
2023-03-03T09:31:39.078Z,9.50
2023-03-03T09:33:42.239Z,9.50
2023-03-03T09:35:45.541Z,9.50
2023-03-03T09:37:48.320Z,9.60
2023-03-03T09:39:54.456Z,9.60
2023-03-03T09:42:02.258Z,9.70
2023-03-03T09:44:19.306Z,9.80
2023-03-03T09:46:39.792Z,9.80
2023-03-03T09:48:54.568Z,9.90
2023-03-03T09:51:12.076Z,9.90
2023-03-03T09:53:29.952Z,10.00
2023-03-03T09:55:50.286Z,10.00
2023-03-03T09:58:10.920Z,10.10
2023-03-03T10:00:31.564Z,10.10
2023-03-03T10:02:38.098Z,10.20
2023-03-03T10:04:49.190Z,10.20
2023-03-03T10:06:53.462Z,10.30
2023-03-03T10:08:57.951Z,10.30
2023-03-03T10:11:17.164Z,10.40
2023-03-03T10:13:57.542Z,10.40
2023-03-03T10:16:19.512Z,10.50
2023-03-03T10:18:24.468Z,10.60
2023-03-03T10:20:37.470Z,10.60
2023-03-03T10:22:49.810Z,10.70
2023-03-03T10:24:58.858Z,10.70
2023-03-03T10:27:13.356Z,10.80
2023-03-03T10:29:29.752Z,10.90
2023-03-03T10:31:41.259Z,10.90
2023-03-03T10:34:01.781Z,11.00
2023-03-03T10:36:12.449Z,11.10
2023-03-03T10:38:29.331Z,11.10
2023-03-03T10:40:33.061Z,11.20
2023-03-03T10:42:40.592Z,11.30
2023-03-03T10:45:05.321Z,11.30
2023-03-03T10:47:09.601Z,11.40
2023-03-03T10:49:22.343Z,11.40
2023-03-03T10:51:42.774Z,11.50
2023-03-03T10:53:48.947Z,11.50
2023-03-03T10:56:11.082Z,11.60
2023-03-03T10:58:22.114Z,11.70
2023-03-03T11:00:50.122Z,11.80
2023-03-03T11:03:04.136Z,11.80
2023-03-03T11:05:29.183Z,11.90
2023-03-03T11:07:38.353Z,12.00
2023-03-03T11:10:00.913Z,12.10
2023-03-03T11:12:02.942Z,12.20
2023-03-03T11:14:04.648Z,12.30
2023-03-03T11:16:16.120Z,12.30
2023-03-03T11:18:17.939Z,12.40
2023-03-03T11:20:25.702Z,12.50
2023-03-03T11:22:36.445Z,12.60
2023-03-03T11:24:43.881Z,12.70
2023-03-03T11:26:51.470Z,12.80
2023-03-03T11:28:58.968Z,12.90
2023-03-03T11:31:03.494Z,13.00
2023-03-03T11:33:08.243Z,13.10
2023-03-03T11:35:24.562Z,13.30
2023-03-03T11:37:43.251Z,13.30
2023-03-03T11:39:45.043Z,13.50
2023-03-03T11:41:49.840Z,13.60
2023-03-03T11:43:53.453Z,13.60
2023-03-03T11:46:00.084Z,13.70
2023-03-03T11:48:11.135Z,13.80
2023-03-03T11:50:35.644Z,13.90
2023-03-03T11:52:45.767Z,14.00
2023-03-03T11:54:50.545Z,14.00
2023-03-03T11:56:56.373Z,14.10
2023-03-03T11:59:04.173Z,14.20
2023-03-03T12:01:22.838Z,14.30
2023-03-03T12:03:44.564Z,14.30
2023-03-03T12:05:46.396Z,14.40
2023-03-03T12:07:54.586Z,14.50
2023-03-03T12:09:59.326Z,14.50
2023-03-03T12:12:03.911Z,14.50
2023-03-03T12:14:22.715Z,14.60
2023-03-03T12:16:24.438Z,14.60
2023-03-03T12:18:41.623Z,14.70
2023-03-03T12:20:52.520Z,14.70
2023-03-03T12:23:12.121Z,14.80
2023-03-03T12:25:27.550Z,14.80
2023-03-03T12:27:39.340Z,14.80
2023-03-03T12:29:46.762Z,14.80
2023-03-03T12:31:55.172Z,14.90
2023-03-03T12:34:02.801Z,14.90
2023-03-03T12:36:30.568Z,14.90
2023-03-03T12:38:40.815Z,15.00
2023-03-03T12:40:46.362Z,15.00
2023-03-03T12:42:59.751Z,15.10
2023-03-03T12:45:20.423Z,15.10
2023-03-03T12:47:25.014Z,15.20
2023-03-03T12:49:42.772Z,15.20
2023-03-03T12:51:58.792Z,15.30
2023-03-03T12:54:19.010Z,15.30
2023-03-03T12:56:34.775Z,15.40
2023-03-03T12:58:40.227Z,15.40
2023-03-03T13:01:00.694Z,15.50
2023-03-03T13:03:31.787Z,15.50
2023-03-03T13:06:06.343Z,15.60
2023-03-03T13:08:10.815Z,15.70
2023-03-03T13:10:24.246Z,15.70
2023-03-03T13:12:28.761Z,15.70
2023-03-03T13:14:49.261Z,15.80
2023-03-03T13:17:00.624Z,15.80
2023-03-03T13:19:15.432Z,15.90
2023-03-03T13:21:17.169Z,15.90
2023-03-03T13:23:21.803Z,15.90
2023-03-03T13:25:26.391Z,16.00
2023-03-03T13:27:32.840Z,16.00
2023-03-03T13:29:41.289Z,16.00
2023-03-03T13:31:47.963Z,16.10
2023-03-03T13:34:00.347Z,16.20
2023-03-03T13:36:05.650Z,16.20
2023-03-03T13:38:10.514Z,16.20
2023-03-03T13:40:24.710Z,16.20
2023-03-03T13:42:30.326Z,16.30
2023-03-03T13:44:32.065Z,16.30
2023-03-03T13:46:37.422Z,16.40
2023-03-03T13:48:51.196Z,16.40
2023-03-03T13:51:05.280Z,16.50
2023-03-03T13:53:16.316Z,16.50
2023-03-03T13:55:38.468Z,16.50
2023-03-03T13:57:52.735Z,16.50
2023-03-03T14:00:02.356Z,16.60
2023-03-03T14:02:16.841Z,16.60
2023-03-03T14:04:37.309Z,16.70
2023-03-03T14:06:40.767Z,16.70
2023-03-03T14:08:43.310Z,16.70
2023-03-03T14:11:05.121Z,16.70
2023-03-03T14:13:12.104Z,16.70
2023-03-03T14:15:17.393Z,16.80
2023-03-03T14:17:25.304Z,16.80
2023-03-03T14:19:33.076Z,16.80
2023-03-03T14:21:55.176Z,16.80
2023-03-03T14:23:59.970Z,16.90
2023-03-03T14:26:04.535Z,16.90
2023-03-03T14:28:11.548Z,16.90
2023-03-03T14:30:22.343Z,17.00
2023-03-03T14:32:39.447Z,17.00
2023-03-03T14:34:57.192Z,17.00
2023-03-03T14:37:19.200Z,17.00
2023-03-03T14:39:37.800Z,17.00
2023-03-03T14:41:40.879Z,17.10
2023-03-03T14:43:45.382Z,17.10
2023-03-03T14:45:47.475Z,17.10
2023-03-03T14:47:49.951Z,17.10
2023-03-03T14:49:51.924Z,17.20
2023-03-03T14:51:53.967Z,17.20
2023-03-03T14:53:56.660Z,17.30
2023-03-03T14:56:14.740Z,17.30
2023-03-03T14:58:25.752Z,17.30
2023-03-03T15:00:29.770Z,17.30
2023-03-03T15:02:34.919Z,17.30
2023-03-03T15:04:37.068Z,17.30
2023-03-03T15:06:45.115Z,17.30
2023-03-03T15:08:47.990Z,17.30
2023-03-03T15:10:50.004Z,17.30
2023-03-03T15:12:52.121Z,17.30
2023-03-03T15:15:05.599Z,17.40
2023-03-03T15:17:33.827Z,17.40
2023-03-03T15:19:44.544Z,17.40
2023-03-03T15:22:10.241Z,17.40
2023-03-03T15:24:25.306Z,17.40
2023-03-03T15:26:38.375Z,17.40
2023-03-03T15:28:49.237Z,17.40
2023-03-03T15:31:02.992Z,17.40
2023-03-03T15:33:04.832Z,17.50
2023-03-03T15:35:14.451Z,17.40
2023-03-03T15:37:22.101Z,17.50
2023-03-03T15:39:28.993Z,17.50
2023-03-03T15:41:42.997Z,17.50
2023-03-03T15:44:24.422Z,17.40
2023-03-03T15:46:26.211Z,17.30
2023-03-03T15:48:34.473Z,17.30
2023-03-03T15:50:39.037Z,17.20
2023-03-03T15:52:41.026Z,17.10
2023-03-03T15:54:51.663Z,17.00
2023-03-03T15:57:16.582Z,16.90
2023-03-03T15:59:37.159Z,16.80
2023-03-03T16:01:48.914Z,16.70
2023-03-03T16:03:55.002Z,16.50
2023-03-03T16:06:03.498Z,16.40
2023-03-03T16:08:12.862Z,16.30
2023-03-03T16:10:31.738Z,16.20
2023-03-03T16:12:42.317Z,16.10
2023-03-03T16:15:02.702Z,16.00
2023-03-03T16:17:04.516Z,15.90
2023-03-03T16:19:12.542Z,15.80
2023-03-03T16:21:26.752Z,15.70
2023-03-03T16:23:35.858Z,15.60
2023-03-03T16:25:57.200Z,15.50
2023-03-03T16:28:03.945Z,15.40
2023-03-03T16:30:21.425Z,15.30
2023-03-03T16:32:52.506Z,15.20
2023-03-03T16:34:54.244Z,15.10
2023-03-03T16:37:22.142Z,15.10
2023-03-03T16:39:23.798Z,15.00
2023-03-03T16:41:44.469Z,14.90
2023-03-03T16:43:52.073Z,14.80
2023-03-03T16:45:58.327Z,14.70
2023-03-03T16:48:00.103Z,14.70
2023-03-03T16:50:01.868Z,14.60
2023-03-03T16:52:03.543Z,14.50
2023-03-03T16:54:08.884Z,14.50
2023-03-03T16:56:14.635Z,14.40
2023-03-03T16:58:22.129Z,14.40
2023-03-03T17:00:27.178Z,14.30
2023-03-03T17:02:47.548Z,14.30
2023-03-03T17:05:09.678Z,14.20
2023-03-03T17:07:29.892Z,14.20
2023-03-03T17:09:39.211Z,14.10
2023-03-03T17:12:02.477Z,14.10
2023-03-03T17:14:13.348Z,14.10
2023-03-03T17:16:22.659Z,14.00
2023-03-03T17:18:35.199Z,14.00
2023-03-03T17:20:43.753Z,13.90
2023-03-03T17:22:48.226Z,13.90
2023-03-03T17:25:02.072Z,13.80
2023-03-03T17:27:12.420Z,13.80
2023-03-03T17:29:49.610Z,13.70
2023-03-03T17:31:51.354Z,13.60
2023-03-03T17:34:05.764Z,13.50
2023-03-03T17:36:33.015Z,13.50
2023-03-03T17:38:53.814Z,13.40
2023-03-03T17:41:02.740Z,13.40
2023-03-03T17:43:10.204Z,13.30
2023-03-03T17:45:13.064Z,13.20
2023-03-03T17:47:25.220Z,13.20
2023-03-03T17:49:26.931Z,13.10
2023-03-03T17:51:49.617Z,13.10
2023-03-03T17:53:57.303Z,13.10
2023-03-03T17:56:05.034Z,13.00
2023-03-03T17:58:13.472Z,12.90
2023-03-03T18:00:23.803Z,12.90
2023-03-03T18:02:30.351Z,12.90
2023-03-03T18:04:35.114Z,12.90
2023-03-03T18:06:58.503Z,12.80
2023-03-03T18:09:14.548Z,12.80
2023-03-03T18:11:23.045Z,12.70
2023-03-03T18:13:43.766Z,12.70
2023-03-03T18:16:05.310Z,12.60
2023-03-03T18:18:26.154Z,12.60
2023-03-03T18:20:46.434Z,12.50
2023-03-03T18:22:50.836Z,12.50
2023-03-03T18:24:52.509Z,12.50
2023-03-03T18:26:56.332Z,12.40
2023-03-03T18:29:16.575Z,12.40
2023-03-03T18:31:21.092Z,12.30
2023-03-03T18:33:35.882Z,12.30
2023-03-03T18:35:38.371Z,12.30
2023-03-03T18:37:42.314Z,12.20
2023-03-03T18:39:46.039Z,12.20
2023-03-03T18:42:06.355Z,12.20
2023-03-03T18:44:24.294Z,12.10
2023-03-03T18:46:26.035Z,12.10
2023-03-03T18:48:46.379Z,12.00
2023-03-03T18:50:49.643Z,12.10
2023-03-03T18:53:07.857Z,12.00
2023-03-03T18:55:09.521Z,11.90
2023-03-03T18:57:16.008Z,11.90
2023-03-03T18:59:36.400Z,11.90
2023-03-03T19:01:44.903Z,11.80
2023-03-03T19:03:49.432Z,11.80
2023-03-03T19:05:57.599Z,11.70
2023-03-03T19:08:03.854Z,11.60
2023-03-03T19:10:21.510Z,11.60
2023-03-03T19:12:43.461Z,11.60
2023-03-03T19:14:46.908Z,11.50
2023-03-03T19:16:50.459Z,11.50
2023-03-03T19:18:55.245Z,11.40
2023-03-03T19:20:57.185Z,11.40
2023-03-03T19:23:06.784Z,11.30
2023-03-03T19:25:08.507Z,11.30
2023-03-03T19:27:32.479Z,11.30
2023-03-03T19:29:50.001Z,11.20
2023-03-03T19:32:06.832Z,11.20
2023-03-03T19:34:08.674Z,11.20
2023-03-03T19:36:28.411Z,11.20
2023-03-03T19:38:36.019Z,11.10
2023-03-03T19:41:00.680Z,11.10
2023-03-03T19:43:21.456Z,11.10
2023-03-03T19:45:29.180Z,11.00
2023-03-03T19:47:33.918Z,11.00
2023-03-03T19:50:05.823Z,11.00
2023-03-03T19:52:13.634Z,11.00
2023-03-03T19:54:30.523Z,10.90
2023-03-03T19:56:35.480Z,10.90
2023-03-03T19:58:59.923Z,10.90
2023-03-03T20:01:14.411Z,10.90
2023-03-03T20:03:31.475Z,10.80
2023-03-03T20:05:48.037Z,10.80
2023-03-03T20:08:08.336Z,10.80
2023-03-03T20:10:15.959Z,10.70
2023-03-03T20:12:20.469Z,10.70
2023-03-03T20:14:22.281Z,10.70
2023-03-03T20:16:34.882Z,10.60
2023-03-03T20:18:39.448Z,10.60
2023-03-03T20:20:50.272Z,10.60
2023-03-03T20:23:01.997Z,10.50
2023-03-03T20:25:16.152Z,10.50
2023-03-03T20:27:24.087Z,10.50
2023-03-03T20:29:44.267Z,10.40
2023-03-03T20:31:52.051Z,10.40
2023-03-03T20:33:56.784Z,10.40
2023-03-03T20:36:09.641Z,10.40
2023-03-03T20:38:15.958Z,10.30
2023-03-03T20:40:20.776Z,10.30
2023-03-03T20:42:46.301Z,10.20
2023-03-03T20:45:03.138Z,10.20
2023-03-03T20:47:24.451Z,10.20
2023-03-03T20:49:45.516Z,10.20
2023-03-03T20:51:56.162Z,10.10
2023-03-03T20:54:01.508Z,10.20
2023-03-03T20:56:07.340Z,10.10
2023-03-03T20:58:33.009Z,10.10
2023-03-03T21:00:44.142Z,10.10
2023-03-03T21:02:53.081Z,10.10
2023-03-03T21:05:07.968Z,10.10
2023-03-03T21:07:22.432Z,10.00
2023-03-03T21:09:24.286Z,10.00
2023-03-03T21:11:31.784Z,10.00
2023-03-03T21:13:44.324Z,10.00
2023-03-03T21:15:54.532Z,10.00
2023-03-03T21:17:57.794Z,9.90
2023-03-03T21:20:18.161Z,9.90
2023-03-03T21:22:19.900Z,9.90
2023-03-03T21:24:21.936Z,9.90
2023-03-03T21:26:53.014Z,9.80
2023-03-03T21:29:03.338Z,9.80
2023-03-03T21:31:15.741Z,9.80
2023-03-03T21:33:36.237Z,9.80
2023-03-03T21:35:56.863Z,9.70
2023-03-03T21:37:58.715Z,9.70
2023-03-03T21:40:14.164Z,9.70
2023-03-03T21:42:18.871Z,9.70
2023-03-03T21:44:50.589Z,9.70
2023-03-03T21:47:01.613Z,9.60
2023-03-03T21:49:05.183Z,9.60
2023-03-03T21:51:07.714Z,9.60
2023-03-03T21:53:09.492Z,9.50
2023-03-03T21:55:11.434Z,9.50
2023-03-03T21:57:13.342Z,9.50
2023-03-03T21:59:15.180Z,9.50
2023-03-03T22:01:17.715Z,9.40
2023-03-03T22:03:20.820Z,9.40
2023-03-03T22:05:23.063Z,9.40
2023-03-03T22:07:24.943Z,9.30
2023-03-03T22:09:26.888Z,9.30
2023-03-03T22:11:28.644Z,9.30
2023-03-03T22:13:30.457Z,9.20
2023-03-03T22:15:33.818Z,9.20
2023-03-03T22:17:35.595Z,9.20
2023-03-03T22:19:38.258Z,9.20
2023-03-03T22:21:40.081Z,9.10
2023-03-03T22:23:41.734Z,9.10
2023-03-03T22:25:43.771Z,9.10
2023-03-03T22:27:45.727Z,9.10
2023-03-03T22:29:47.928Z,9.10
2023-03-03T22:31:50.312Z,9.00
2023-03-03T22:33:52.121Z,9.00
2023-03-03T22:35:53.877Z,9.00
2023-03-03T22:37:55.595Z,9.00
2023-03-03T22:39:57.208Z,8.90
2023-03-03T22:41:58.881Z,8.90
2023-03-03T22:44:00.580Z,8.90
2023-03-03T22:46:02.302Z,8.90
2023-03-03T22:48:04.087Z,8.80
2023-03-03T22:50:06.442Z,8.80
2023-03-03T22:52:08.191Z,8.80
2023-03-03T22:54:10.018Z,8.70
2023-03-03T22:56:11.842Z,8.70
2023-03-03T22:58:14.052Z,8.70
2023-03-03T23:00:15.978Z,8.70
2023-03-03T23:02:17.930Z,8.60
2023-03-03T23:04:19.686Z,8.60
2023-03-03T23:06:21.477Z,8.60
2023-03-03T23:08:23.166Z,8.60
2023-03-03T23:10:25.184Z,8.60
2023-03-03T23:12:26.904Z,8.60
2023-03-03T23:14:28.589Z,8.60
2023-03-03T23:16:30.325Z,8.50
2023-03-03T23:18:32.159Z,8.50
2023-03-03T23:20:34.196Z,8.50
2023-03-03T23:22:36.047Z,8.50
2023-03-03T23:24:37.696Z,8.40
2023-03-03T23:26:39.349Z,8.40
2023-03-03T23:28:40.989Z,8.40
2023-03-03T23:30:42.829Z,8.40
2023-03-03T23:32:45.169Z,8.40
2023-03-03T23:34:46.901Z,8.40
2023-03-03T23:36:48.663Z,8.40
2023-03-03T23:38:50.645Z,8.30
2023-03-03T23:40:52.347Z,8.30
2023-03-03T23:42:54.031Z,8.30
2023-03-03T23:44:55.769Z,8.20
2023-03-03T23:46:57.510Z,8.20
2023-03-03T23:49:00.930Z,8.20
2023-03-03T23:51:03.298Z,8.20
2023-03-03T23:53:05.700Z,8.20
2023-03-03T23:55:07.609Z,8.20
2023-03-03T23:57:09.293Z,8.20
2023-03-03T23:59:11.053Z,8.10
